Terminal Aerodrome Forecast
Issued by NWS Shreveport, LA

Home | Current Version | Previous Version | Text Only | Print | Product List | Glossary On
Versions: 1 2 3 4 5 6 7 8 9 10 11 12 13 14 15 16 17 18 19 20 21 22 23 24
432
FTUS44 KSHV 291304 AAB
TAFSHV
TAF AMD
KSHV 291304Z 2913/3012 15011G17KT P6SM BKN015 OVC040
     FM291600 17013G22KT P6SM BKN020 BKN100
     FM292000 17013G22KT P6SM VCTS BKN030CB
     FM300000 15010KT 3SM -TSRA BR OVC030CB
     FM300300 17016G23KT P6SM -TSRA OVC015CB
     FM300900 17015KT P6SM -TSRA OVC007CB=

USA.gov is the U.S. government's official web portal to all federal, state and local government web resources and services.